Moko, Arkansas
Current Conditions -  °F | °C
As of 12:53 PM on Saturday 25 Oct 2014 (Local Time) from KUNO Reporting Station
Clear Clear  
Wind Chill: 24°   Ceiling: Unl
Heat Index: 24°   Visibility: 7mi
Dew Point: 17°   Wind: 5mph
Humidity: 62%   Direction: NA
Pressure: 30.07"   Gusts: NA
Location:  36.47°N, 91.84°W
Report Text: KUNO 251753Z AUTO VRB04KT 7SM CLR 24/17 A3007 RMK AO2 SLP174 T02440167 10250 20144 58010
Loading
Personal Weather Stations






























Interactive Weather Map
Tropical Storm Tracking
New forecast layout! Learn more

10-Day Weather Forecast

Advertisements
Track Severe Weather on mobile